createdAt,value
2022-10-19T00:00:53.590Z,12.41
2022-10-19T00:01:53.625Z,12.62
2022-10-19T00:02:53.605Z,12.77
2022-10-19T00:03:53.596Z,12.71
2022-10-19T00:04:53.568Z,12.54
2022-10-19T00:05:53.571Z,12.48
2022-10-19T00:06:53.547Z,12.42
2022-10-19T00:07:53.557Z,12.48
2022-10-19T00:08:53.574Z,12.54
2022-10-19T00:09:53.534Z,12.59
2022-10-19T00:10:53.539Z,12.54
2022-10-19T00:11:53.510Z,12.46
2022-10-19T00:12:53.536Z,12.39
2022-10-19T00:13:53.542Z,12.21
2022-10-19T00:14:53.502Z,12.37
2022-10-19T00:15:53.494Z,12.44
2022-10-19T00:16:53.483Z,12.44
2022-10-19T00:17:53.488Z,12.46
2022-10-19T00:18:53.494Z,12.49
2022-10-19T00:19:53.486Z,12.51
2022-10-19T00:20:53.462Z,12.26
2022-10-19T00:21:53.466Z,12.46
2022-10-19T00:22:53.457Z,12.45
2022-10-19T00:23:53.446Z,12.41
2022-10-19T00:24:54.411Z,12.56
2022-10-19T00:25:53.481Z,12.44
2022-10-19T00:26:53.422Z,12.49
2022-10-19T00:27:53.409Z,12.44
2022-10-19T00:28:53.509Z,12.57
2022-10-19T00:29:53.407Z,12.56
2022-10-19T00:30:53.399Z,12.51
2022-10-19T00:31:53.389Z,12.66
2022-10-19T00:32:53.381Z,12.79
2022-10-19T00:33:53.370Z,12.67
2022-10-19T00:34:53.378Z,12.33
2022-10-19T00:35:53.382Z,12.11
2022-10-19T00:36:53.349Z,11.85
2022-10-19T00:37:53.358Z,12.01
2022-10-19T00:38:53.325Z,12.29
2022-10-19T00:39:53.349Z,12.20
2022-10-19T00:40:53.326Z,12.06
2022-10-19T00:41:53.334Z,12.20
2022-10-19T00:42:53.314Z,12.12
2022-10-19T00:43:53.327Z,12.15
2022-10-19T00:44:53.332Z,12.02
2022-10-19T00:45:53.297Z,12.12
2022-10-19T00:46:53.296Z,12.27
2022-10-19T00:47:53.278Z,12.01
2022-10-19T00:48:53.271Z,12.01
2022-10-19T00:49:53.274Z,12.13
2022-10-19T00:50:53.277Z,12.15
2022-10-19T00:51:53.257Z,12.15
2022-10-19T00:52:53.241Z,12.15
2022-10-19T00:53:53.253Z,12.21
2022-10-19T00:54:53.230Z,12.26
2022-10-19T00:55:53.270Z,12.42
2022-10-19T00:56:53.214Z,12.45
2022-10-19T00:57:53.242Z,12.48
2022-10-19T00:58:53.226Z,12.59
2022-10-19T00:59:53.221Z,12.56
2022-10-19T01:00:53.248Z,12.29
2022-10-19T01:01:53.294Z,12.05
2022-10-19T01:02:53.175Z,12.09
2022-10-19T01:03:53.197Z,12.13
2022-10-19T01:04:53.170Z,12.20
2022-10-19T01:05:53.166Z,12.12
2022-10-19T01:06:53.196Z,12.19
2022-10-19T01:07:53.163Z,12.33
2022-10-19T01:08:53.145Z,12.41
2022-10-19T01:09:53.186Z,12.29
2022-10-19T01:10:53.130Z,12.12
2022-10-19T01:11:53.133Z,12.04
2022-10-19T01:12:53.109Z,12.19
2022-10-19T01:13:53.101Z,12.34
2022-10-19T01:14:53.117Z,12.44
2022-10-19T01:16:53.098Z,12.60
2022-10-19T01:17:53.979Z,12.60
2022-10-19T01:18:53.122Z,12.69
2022-10-19T01:19:53.065Z,12.67
2022-10-19T01:20:53.050Z,12.64
2022-10-19T01:21:53.073Z,12.66
2022-10-19T01:22:53.064Z,12.62
2022-10-19T01:23:53.029Z,12.52
2022-10-19T01:24:53.018Z,12.64
2022-10-19T01:25:53.017Z,12.52
2022-10-19T01:26:53.050Z,12.63
2022-10-19T01:27:53.008Z,12.48
2022-10-19T01:28:53.097Z,12.41
2022-10-19T01:29:53.006Z,12.42
2022-10-19T01:30:52.989Z,12.38
2022-10-19T01:31:52.985Z,12.45
2022-10-19T01:32:52.998Z,12.45
2022-10-19T01:33:53.015Z,12.27
2022-10-19T01:34:52.965Z,12.15
2022-10-19T01:35:52.939Z,11.99
2022-10-19T01:36:52.953Z,11.89
2022-10-19T01:37:52.965Z,11.89
2022-10-19T01:38:52.928Z,12.06
2022-10-19T01:39:52.921Z,12.02
2022-10-19T01:40:52.933Z,12.21
2022-10-19T01:41:52.933Z,12.45
2022-10-19T01:42:52.901Z,12.52
2022-10-19T01:43:52.931Z,12.46
2022-10-19T01:44:52.884Z,12.45
2022-10-19T01:45:52.881Z,12.41
2022-10-19T01:46:52.891Z,12.38
2022-10-19T01:47:52.878Z,12.15
2022-10-19T01:48:52.879Z,12.02
2022-10-19T01:49:52.863Z,11.99
2022-10-19T01:50:52.849Z,11.85
2022-10-19T01:51:52.871Z,11.94
2022-10-19T01:52:52.856Z,11.82
2022-10-19T01:53:52.837Z,11.83
2022-10-19T01:54:52.824Z,11.77
2022-10-19T01:55:52.823Z,11.93
2022-10-19T01:56:52.808Z,11.89
2022-10-19T01:57:52.810Z,12.13
2022-10-19T01:58:52.810Z,12.19
2022-10-19T01:59:52.789Z,12.33
2022-10-19T02:00:52.914Z,12.52
2022-10-19T02:01:53.792Z,12.31
2022-10-19T02:02:52.773Z,12.42
2022-10-19T02:03:52.784Z,12.37
2022-10-19T02:04:52.775Z,12.45
2022-10-19T02:05:52.753Z,12.27
2022-10-19T02:06:52.749Z,12.24
2022-10-19T02:07:52.735Z,12.19
2022-10-19T02:08:52.746Z,12.20
2022-10-19T02:09:52.721Z,12.15
2022-10-19T02:10:52.897Z,12.05
2022-10-19T02:11:56.160Z,12.01
2022-10-19T02:12:52.705Z,12.16
2022-10-19T02:13:53.509Z,12.13
2022-10-19T02:14:52.708Z,12.04
2022-10-19T02:15:52.765Z,12.24
2022-10-19T02:16:52.677Z,12.24
2022-10-19T02:17:52.678Z,12.38
2022-10-19T02:18:52.682Z,12.39
2022-10-19T02:19:52.673Z,12.34
2022-10-19T02:20:52.725Z,12.42
2022-10-19T02:21:52.652Z,12.46
2022-10-19T02:22:52.624Z,12.51
2022-10-19T02:23:54.195Z,12.56
2022-10-19T02:24:52.638Z,12.70
2022-10-19T02:25:52.622Z,12.70
2022-10-19T02:26:52.617Z,12.37
2022-10-19T02:27:52.601Z,12.27
2022-10-19T02:28:52.615Z,12.13
2022-10-19T02:29:52.620Z,11.96
2022-10-19T02:30:52.588Z,11.89
2022-10-19T02:31:52.585Z,11.85
2022-10-19T02:32:52.566Z,11.56
2022-10-19T02:33:52.561Z,11.53
2022-10-19T02:34:52.570Z,11.52
2022-10-19T02:35:53.468Z,11.31
2022-10-19T02:36:52.540Z,11.32
2022-10-19T02:37:52.545Z,11.21
2022-10-19T02:38:52.529Z,11.21
2022-10-19T02:39:52.520Z,11.13
2022-10-19T02:40:52.546Z,11.28
2022-10-19T02:41:52.500Z,11.49
2022-10-19T02:42:52.501Z,11.71
2022-10-19T02:43:52.521Z,11.78
2022-10-19T02:44:52.487Z,11.67
2022-10-19T02:45:52.520Z,11.86
2022-10-19T02:46:52.498Z,11.65
2022-10-19T02:47:52.476Z,11.85
2022-10-19T02:48:52.495Z,11.93
2022-10-19T02:49:52.472Z,12.20
2022-10-19T02:50:52.453Z,11.97
2022-10-19T02:51:52.449Z,12.01
2022-10-19T02:52:52.449Z,11.78
2022-10-19T02:53:52.444Z,11.64
2022-10-19T02:54:52.421Z,11.57
2022-10-19T02:55:52.450Z,11.34
2022-10-19T02:56:52.417Z,11.17
2022-10-19T02:57:52.424Z,11.28
2022-10-19T02:58:52.393Z,11.39
2022-10-19T02:59:52.392Z,11.31
2022-10-19T03:00:52.459Z,11.35
2022-10-19T03:01:52.387Z,11.24
2022-10-19T03:02:52.385Z,11.31
2022-10-19T03:03:52.375Z,11.36
2022-10-19T03:04:52.367Z,11.49
2022-10-19T03:05:52.369Z,11.32
2022-10-19T03:06:52.349Z,11.17
2022-10-19T03:07:52.349Z,11.03
2022-10-19T03:08:52.333Z,11.13
2022-10-19T03:09:52.336Z,11.14
2022-10-19T03:10:52.321Z,11.11
2022-10-19T03:11:52.352Z,11.14
2022-10-19T03:12:52.309Z,11.19
2022-10-19T03:13:52.308Z,11.14
2022-10-19T03:14:52.320Z,11.09
2022-10-19T03:15:52.296Z,11.10
2022-10-19T03:16:52.418Z,10.99
2022-10-19T03:17:52.277Z,11.09
2022-10-19T03:18:52.290Z,11.07
2022-10-19T03:19:52.253Z,10.94
2022-10-19T03:20:52.289Z,11.09
2022-10-19T03:21:52.244Z,11.16
2022-10-19T03:23:52.288Z,11.14
2022-10-19T03:24:52.228Z,11.07
2022-10-19T03:25:52.240Z,11.20
2022-10-19T03:26:52.235Z,11.19
2022-10-19T03:27:52.212Z,11.19
2022-10-19T03:28:52.265Z,11.14
2022-10-19T03:29:52.203Z,11.06
2022-10-19T03:30:52.188Z,11.10
2022-10-19T03:31:52.193Z,10.94
2022-10-19T03:32:52.195Z,11.09
2022-10-19T03:33:52.184Z,11.21
2022-10-19T03:34:52.205Z,11.25
2022-10-19T03:35:52.164Z,11.21
2022-10-19T03:36:52.160Z,11.38
2022-10-19T03:37:52.132Z,11.53
2022-10-19T03:38:52.140Z,11.75
2022-10-19T03:39:52.133Z,11.70
2022-10-19T03:40:52.120Z,11.74
2022-10-19T03:41:52.140Z,11.78
2022-10-19T03:42:52.116Z,11.89
2022-10-19T03:43:52.182Z,11.89
2022-10-19T03:44:52.100Z,12.01
2022-10-19T03:45:52.092Z,12.05
2022-10-19T03:46:52.075Z,11.87
2022-10-19T03:47:52.087Z,11.75
2022-10-19T03:48:52.094Z,11.56
2022-10-19T03:49:52.061Z,11.57
2022-10-19T03:50:52.062Z,11.72
2022-10-19T03:51:52.053Z,11.80
2022-10-19T03:52:52.096Z,12.01
2022-10-19T03:53:52.055Z,12.09
2022-10-19T03:54:52.028Z,12.16
2022-10-19T03:55:52.065Z,12.13
2022-10-19T03:56:52.093Z,11.94
2022-10-19T03:57:52.025Z,11.99
2022-10-19T03:58:52.012Z,11.93
2022-10-19T03:59:52.007Z,12.01
2022-10-19T04:00:52.033Z,12.19
2022-10-19T04:01:52.853Z,12.02
2022-10-19T04:02:51.999Z,11.99
2022-10-19T04:03:52.017Z,12.19
2022-10-19T04:04:51.962Z,12.46
2022-10-19T04:05:51.970Z,12.46
2022-10-19T04:06:51.941Z,12.42
2022-10-19T04:07:51.949Z,12.11
2022-10-19T04:08:51.956Z,11.86
2022-10-19T04:09:52.022Z,11.64
2022-10-19T04:10:51.949Z,11.82
2022-10-19T04:11:51.908Z,11.64
2022-10-19T04:12:53.889Z,11.68
2022-10-19T04:13:52.934Z,11.99
2022-10-19T04:14:57.293Z,12.13
2022-10-19T04:15:53.885Z,12.26
2022-10-19T04:16:52.463Z,12.31
2022-10-19T04:17:52.474Z,12.37
2022-10-19T04:18:51.870Z,12.41
2022-10-19T04:19:51.904Z,12.41
2022-10-19T04:20:51.845Z,12.37
2022-10-19T04:21:51.852Z,12.48
2022-10-19T04:22:51.854Z,12.38
2022-10-19T04:23:51.851Z,12.46
2022-10-19T04:24:52.409Z,12.41
2022-10-19T04:25:51.921Z,12.41
2022-10-19T04:26:51.860Z,12.52
2022-10-19T04:27:51.800Z,12.56
2022-10-19T04:28:51.857Z,12.48
2022-10-19T04:29:51.812Z,12.45
2022-10-19T04:30:51.781Z,12.46
2022-10-19T04:31:51.822Z,12.39
2022-10-19T04:32:51.797Z,12.34
2022-10-19T04:33:51.778Z,12.16
2022-10-19T04:34:51.818Z,12.30
2022-10-19T04:35:51.746Z,12.30
2022-10-19T04:36:51.774Z,12.12
2022-10-19T04:37:51.785Z,11.83
2022-10-19T04:38:51.829Z,11.80
2022-10-19T04:39:51.813Z,11.94
2022-10-19T04:40:51.749Z,12.05
2022-10-19T04:41:51.704Z,12.11
2022-10-19T04:42:51.706Z,12.21
2022-10-19T04:43:51.833Z,12.27
2022-10-19T04:44:51.901Z,12.27
2022-10-19T04:45:51.696Z,12.26
2022-10-19T04:46:51.692Z,12.26
2022-10-19T04:47:51.668Z,12.23
2022-10-19T04:48:51.696Z,12.23
2022-10-19T04:49:51.685Z,12.29
2022-10-19T04:50:51.839Z,12.20
2022-10-19T04:51:52.434Z,12.06
2022-10-19T04:52:51.688Z,11.75
2022-10-19T04:53:53.362Z,11.70
2022-10-19T04:54:51.629Z,11.75
2022-10-19T04:55:52.633Z,11.80
2022-10-19T04:56:51.616Z,11.82
2022-10-19T04:57:51.624Z,11.75
2022-10-19T04:58:51.599Z,11.52
2022-10-19T04:59:51.612Z,11.46
2022-10-19T05:00:51.665Z,11.50
2022-10-19T05:01:51.577Z,11.72
2022-10-19T05:03:24.016Z,11.72
2022-10-19T05:03:51.609Z,11.80
2022-10-19T05:04:51.614Z,11.93
2022-10-19T05:05:51.572Z,12.04
2022-10-19T05:06:51.588Z,12.09
2022-10-19T05:07:51.542Z,12.13
2022-10-19T05:08:51.540Z,12.16
2022-10-19T05:09:51.551Z,12.09
2022-10-19T05:10:51.514Z,12.12
2022-10-19T05:11:51.534Z,12.30
2022-10-19T05:12:51.502Z,12.13
2022-10-19T05:13:51.495Z,12.16
2022-10-19T05:14:51.510Z,12.12
2022-10-19T05:15:51.547Z,12.11
2022-10-19T05:16:51.491Z,12.29
2022-10-19T05:17:51.522Z,12.33
2022-10-19T05:18:51.502Z,12.26
2022-10-19T05:19:51.494Z,12.15
2022-10-19T05:20:51.441Z,12.23
2022-10-19T05:21:51.453Z,12.29
2022-10-19T05:22:51.558Z,12.23
2022-10-19T05:23:51.457Z,12.26
2022-10-19T05:24:54.505Z,12.41
2022-10-19T05:25:53.434Z,12.45
2022-10-19T05:26:51.441Z,12.44
2022-10-19T05:27:51.416Z,12.09
2022-10-19T05:28:51.419Z,11.77
2022-10-19T05:29:51.407Z,11.70
2022-10-19T05:30:51.442Z,11.89
2022-10-19T05:31:51.413Z,12.13
2022-10-19T05:32:51.422Z,12.02
2022-10-19T05:33:51.438Z,12.19
2022-10-19T05:34:51.402Z,12.37
2022-10-19T05:35:51.357Z,12.41
2022-10-19T05:36:51.357Z,12.45
2022-10-19T05:37:51.422Z,12.21
2022-10-19T05:38:51.346Z,11.82
2022-10-19T05:39:51.333Z,11.61
2022-10-19T05:40:53.576Z,11.41
2022-10-19T05:41:51.318Z,11.36
2022-10-19T05:42:51.342Z,11.54
2022-10-19T05:43:51.318Z,11.70
2022-10-19T05:44:51.315Z,11.87
2022-10-19T05:45:51.290Z,11.97
2022-10-19T05:46:51.358Z,12.15
2022-10-19T05:47:51.285Z,12.30
2022-10-19T05:48:51.986Z,12.13
2022-10-19T05:49:51.270Z,11.89
2022-10-19T05:50:51.278Z,11.82
2022-10-19T05:51:51.277Z,11.72
2022-10-19T05:52:51.266Z,11.72
2022-10-19T05:53:51.274Z,11.56
2022-10-19T05:54:51.222Z,11.77
2022-10-19T05:55:51.222Z,11.87
2022-10-19T05:56:51.294Z,12.06
2022-10-19T05:57:51.231Z,12.29
2022-10-19T05:58:52.029Z,12.20
2022-10-19T05:59:51.193Z,12.30
2022-10-19T06:00:51.211Z,12.42
2022-10-19T06:01:51.211Z,12.57
2022-10-19T06:02:53.697Z,12.38
2022-10-19T06:03:51.162Z,12.04
2022-10-19T06:04:51.167Z,12.13
2022-10-19T06:05:51.991Z,11.77
2022-10-19T06:06:51.137Z,11.77
2022-10-19T06:07:51.161Z,11.75
2022-10-19T06:08:51.144Z,11.71
2022-10-19T06:09:51.121Z,11.71
2022-10-19T06:10:51.134Z,11.71
2022-10-19T06:11:51.109Z,11.75
2022-10-19T06:12:51.198Z,11.68
2022-10-19T06:13:51.105Z,11.72
2022-10-19T06:14:51.174Z,11.85
2022-10-19T06:15:51.096Z,11.80
2022-10-19T06:16:51.131Z,11.77
2022-10-19T06:17:51.082Z,11.77
2022-10-19T06:18:51.086Z,11.97
2022-10-19T06:19:51.077Z,12.12
2022-10-19T06:20:51.058Z,12.39
2022-10-19T06:21:51.224Z,12.49
2022-10-19T06:22:51.050Z,12.29
2022-10-19T06:23:51.060Z,12.21
2022-10-19T06:24:51.050Z,12.15
2022-10-19T06:25:51.018Z,12.08
2022-10-19T06:26:51.054Z,11.96
2022-10-19T06:27:51.044Z,11.85
2022-10-19T06:28:51.018Z,11.85
2022-10-19T06:29:51.006Z,11.82
2022-10-19T06:30:51.036Z,12.09
2022-10-19T06:31:51.082Z,12.20
2022-10-19T06:32:51.138Z,12.30
2022-10-19T06:33:51.006Z,12.37
2022-10-19T06:34:55.717Z,12.37
2022-10-19T06:35:52.970Z,12.41
2022-10-19T06:36:50.947Z,11.99
2022-10-19T06:37:50.942Z,11.74
2022-10-19T06:38:51.015Z,11.67
2022-10-19T06:39:51.212Z,11.80
2022-10-19T06:40:50.923Z,11.94
2022-10-19T06:41:50.939Z,11.96
2022-10-19T06:42:50.939Z,11.90
2022-10-19T06:43:50.955Z,12.01
2022-10-19T06:44:50.917Z,11.77
2022-10-19T06:45:50.933Z,11.75
2022-10-19T06:46:50.943Z,11.83
2022-10-19T06:47:51.010Z,11.87
2022-10-19T06:48:50.916Z,12.04
2022-10-19T06:49:50.882Z,12.02
2022-10-19T06:50:50.857Z,11.89
2022-10-19T06:51:50.842Z,11.99
2022-10-19T06:52:50.975Z,11.93
2022-10-19T06:53:52.815Z,11.93
2022-10-19T06:54:51.862Z,12.09
2022-10-19T06:55:50.814Z,11.85
2022-10-19T06:56:50.845Z,11.99
2022-10-19T06:57:50.858Z,11.89
2022-10-19T06:58:50.817Z,11.99
2022-10-19T06:59:52.880Z,12.24
2022-10-19T07:00:50.873Z,12.45
2022-10-19T07:01:50.781Z,12.74
2022-10-19T07:02:50.807Z,12.64
2022-10-19T07:03:50.770Z,12.67
2022-10-19T07:04:50.774Z,12.81
2022-10-19T07:05:50.775Z,12.75
2022-10-19T07:06:50.741Z,12.46
2022-10-19T07:07:50.817Z,12.44
2022-10-19T07:08:50.729Z,12.51
2022-10-19T07:09:50.726Z,12.59
2022-10-19T07:10:50.717Z,12.79
2022-10-19T07:11:50.762Z,12.78
2022-10-19T07:12:50.714Z,12.63
2022-10-19T07:13:50.697Z,12.67
2022-10-19T07:14:50.685Z,12.66
2022-10-19T07:15:50.713Z,12.77
2022-10-19T07:16:50.699Z,12.57
2022-10-19T07:17:50.682Z,12.69
2022-10-19T07:18:50.668Z,12.74
2022-10-19T07:19:50.653Z,12.75
2022-10-19T07:20:50.677Z,12.62
2022-10-19T07:21:50.654Z,12.85
2022-10-19T07:22:50.646Z,12.84
2022-10-19T07:23:50.635Z,12.54
2022-10-19T07:24:50.661Z,12.64
2022-10-19T07:25:50.626Z,12.60
2022-10-19T07:26:50.609Z,12.63
2022-10-19T07:27:50.965Z,12.57
2022-10-19T07:28:50.669Z,12.62
2022-10-19T07:29:50.595Z,12.71
2022-10-19T07:30:50.617Z,12.77
2022-10-19T07:31:50.587Z,12.84
2022-10-19T07:32:50.617Z,12.57
2022-10-19T07:33:50.560Z,12.54
2022-10-19T07:34:50.556Z,12.59
2022-10-19T07:35:50.563Z,12.52
2022-10-19T07:36:50.561Z,12.59
2022-10-19T07:37:50.561Z,12.63
2022-10-19T07:38:50.537Z,12.56
2022-10-19T07:39:50.586Z,12.37
2022-10-19T07:40:50.544Z,12.37
2022-10-19T07:41:50.516Z,12.24
2022-10-19T07:42:50.528Z,12.23
2022-10-19T07:43:50.511Z,12.42
2022-10-19T07:44:50.512Z,12.54
2022-10-19T07:45:50.497Z,12.77
2022-10-19T07:46:50.485Z,12.85
2022-10-19T07:47:50.483Z,12.89
2022-10-19T07:48:50.472Z,12.79
2022-10-19T07:49:50.575Z,12.71
2022-10-19T07:50:50.452Z,12.74
2022-10-19T07:51:50.457Z,12.77
2022-10-19T07:52:50.476Z,12.92
2022-10-19T07:53:50.481Z,13.14
2022-10-19T07:54:50.500Z,13.11
2022-10-19T07:55:50.456Z,13.30
2022-10-19T07:56:50.431Z,13.30
2022-10-19T07:57:50.419Z,13.54
2022-10-19T07:58:50.404Z,13.55
2022-10-19T07:59:50.403Z,13.71
2022-10-19T08:00:50.436Z,13.65
2022-10-19T08:01:50.522Z,13.71
2022-10-19T08:03:00.096Z,13.83
2022-10-19T08:05:02.062Z,14.04
2022-10-19T08:05:52.370Z,14.25
2022-10-19T08:06:50.355Z,13.71
2022-10-19T08:07:50.367Z,13.44
2022-10-19T08:08:50.361Z,13.54
2022-10-19T08:09:54.333Z,13.40
2022-10-19T08:10:51.351Z,13.12
2022-10-19T08:11:50.340Z,13.11
2022-10-19T08:12:50.335Z,13.44
2022-10-19T08:13:50.314Z,13.54
2022-10-19T08:14:50.302Z,13.59
2022-10-19T08:15:50.303Z,13.43
2022-10-19T08:16:50.286Z,13.46
2022-10-19T08:17:50.310Z,13.51
2022-10-19T08:18:50.279Z,13.58
2022-10-19T08:19:50.270Z,14.02
2022-10-19T08:20:50.275Z,14.34
2022-10-19T08:21:50.264Z,14.78
2022-10-19T08:22:52.040Z,15.38
2022-10-19T08:23:50.258Z,15.75
2022-10-19T08:24:50.250Z,16.38
2022-10-19T08:25:50.236Z,16.48
2022-10-19T08:26:50.234Z,16.34
2022-10-19T08:27:50.222Z,16.15
2022-10-19T08:28:50.238Z,15.76
2022-10-19T08:29:50.215Z,15.68
2022-10-19T08:30:50.206Z,15.60
2022-10-19T08:31:50.224Z,15.46
2022-10-19T08:32:50.191Z,15.49
2022-10-19T08:33:50.195Z,15.26
2022-10-19T08:34:50.218Z,15.08
2022-10-19T08:35:50.167Z,15.41
2022-10-19T08:36:50.167Z,15.52
2022-10-19T08:37:50.565Z,15.43
2022-10-19T08:38:50.164Z,15.82
2022-10-19T08:39:50.171Z,16.01
2022-10-19T08:40:50.133Z,16.22
2022-10-19T08:41:51.068Z,15.57
2022-10-19T08:42:50.131Z,15.85
2022-10-19T08:43:50.149Z,16.58
2022-10-19T08:44:50.122Z,17.55
2022-10-19T08:45:50.139Z,17.79
2022-10-19T08:46:50.147Z,18.02
2022-10-19T08:47:50.229Z,19.14
2022-10-19T08:48:50.099Z,19.23
2022-10-19T08:49:50.080Z,19.33
2022-10-19T08:50:50.073Z,20.42
2022-10-19T08:51:50.113Z,21.51
2022-10-19T08:52:50.065Z,20.80
2022-10-19T08:53:50.053Z,20.24
2022-10-19T08:54:50.095Z,19.51
2022-10-19T08:55:50.041Z,18.64
2022-10-19T08:56:51.834Z,18.02
2022-10-19T08:57:51.057Z,18.25
2022-10-19T08:58:50.025Z,17.95
2022-10-19T08:59:50.096Z,17.57
2022-10-19T09:00:50.032Z,16.92
2022-10-19T09:01:50.024Z,16.06
2022-10-19T09:02:50.086Z,15.96
2022-10-19T09:03:55.451Z,15.79
2022-10-19T09:04:52.199Z,15.60
2022-10-19T09:05:50.048Z,15.21
2022-10-19T09:06:49.988Z,15.24
2022-10-19T09:07:50.007Z,15.12
2022-10-19T09:08:50.013Z,14.99
2022-10-19T09:09:49.998Z,14.98
2022-10-19T09:10:49.982Z,14.80
2022-10-19T09:11:49.948Z,15.02
2022-10-19T09:12:52.818Z,15.02
2022-10-19T09:14:04.842Z,15.13
2022-10-19T09:14:51.937Z,15.02
2022-10-19T09:15:49.930Z,14.65
2022-10-19T09:16:49.917Z,14.32
2022-10-19T09:17:50.018Z,13.92
2022-10-19T09:18:49.996Z,13.71
2022-10-19T09:19:49.922Z,13.52
2022-10-19T09:20:49.939Z,13.62
2022-10-19T09:21:49.925Z,13.76
2022-10-19T09:22:49.875Z,14.31
2022-10-19T09:23:49.894Z,14.46
2022-10-19T09:24:49.862Z,14.71
2022-10-19T09:25:49.867Z,15.02
2022-10-19T09:26:49.910Z,15.36
2022-10-19T09:27:49.846Z,15.63
2022-10-19T09:28:49.867Z,15.78
2022-10-19T09:29:49.823Z,16.35
2022-10-19T09:30:49.818Z,16.01
2022-10-19T09:31:49.864Z,15.46
2022-10-19T09:32:49.811Z,15.23
2022-10-19T09:33:49.839Z,15.12
2022-10-19T09:34:49.834Z,15.27
2022-10-19T09:35:49.792Z,15.01
2022-10-19T09:36:51.162Z,15.09
2022-10-19T09:37:49.793Z,15.61
2022-10-19T09:38:49.771Z,15.88
2022-10-19T09:39:54.057Z,16.15
2022-10-19T09:40:51.761Z,16.22
2022-10-19T09:41:49.792Z,16.35
2022-10-19T09:42:49.754Z,16.48
2022-10-19T09:43:49.779Z,16.59
2022-10-19T09:44:49.751Z,17.06
2022-10-19T09:45:49.786Z,17.44
2022-10-19T09:46:49.754Z,17.46
2022-10-19T09:47:49.723Z,17.57
2022-10-19T09:48:49.722Z,17.57
2022-10-19T09:49:49.764Z,17.63
2022-10-19T09:50:49.680Z,17.00
2022-10-19T09:51:49.791Z,17.44
2022-10-19T09:52:49.671Z,17.99
2022-10-19T09:53:49.707Z,18.25
2022-10-19T09:54:49.967Z,18.40
2022-10-19T09:56:50.431Z,21.90
2022-10-19T09:57:49.764Z,23.23
2022-10-19T09:58:50.382Z,22.72
2022-10-19T09:59:49.803Z,21.91
2022-10-19T10:00:49.670Z,21.19
2022-10-19T10:01:49.735Z,20.86
2022-10-19T10:02:49.619Z,20.72
2022-10-19T10:03:52.500Z,20.41
2022-10-19T10:04:50.604Z,21.46
2022-10-19T10:05:49.635Z,21.13
2022-10-19T10:06:49.604Z,20.72
2022-10-19T10:07:49.595Z,20.38
2022-10-19T10:08:49.607Z,20.65
2022-10-19T10:09:49.580Z,20.35
2022-10-19T10:10:49.610Z,20.86
2022-10-19T10:11:49.652Z,22.94
2022-10-19T10:12:49.586Z,24.05
2022-10-19T10:13:49.559Z,24.12
2022-10-19T10:14:49.579Z,23.62
2022-10-19T10:15:49.572Z,22.69
2022-10-19T10:16:49.525Z,21.98
2022-10-19T10:17:49.536Z,21.35
2022-10-19T10:18:49.510Z,20.47
2022-10-19T10:19:49.525Z,22.47
2022-10-19T10:20:49.556Z,23.46
2022-10-19T10:21:49.487Z,23.77
2022-10-19T10:22:49.525Z,24.77
2022-10-19T10:23:49.482Z,25.50
2022-10-19T10:24:49.482Z,25.07
2022-10-19T10:25:49.602Z,23.26
2022-10-19T10:26:49.507Z,21.45
2022-10-19T10:27:49.514Z,20.93
2022-10-19T10:28:49.452Z,20.98
2022-10-19T10:29:49.496Z,21.29
2022-10-19T10:30:49.434Z,22.02
2022-10-19T10:31:49.452Z,20.80
2022-10-19T10:32:49.490Z,20.12
2022-10-19T10:33:49.568Z,19.88
2022-10-19T10:34:53.075Z,19.13
2022-10-19T10:35:51.418Z,18.62
2022-10-19T10:36:49.428Z,18.94
2022-10-19T10:37:49.421Z,18.65
2022-10-19T10:38:49.421Z,18.99
2022-10-19T10:39:49.425Z,20.35
2022-10-19T10:40:49.373Z,22.06
2022-10-19T10:41:49.374Z,23.29
2022-10-19T10:42:49.381Z,24.42
2022-10-19T10:43:49.377Z,25.46
2022-10-19T10:44:49.337Z,25.98
2022-10-19T10:45:49.341Z,25.52
2022-10-19T10:46:49.363Z,24.44
2022-10-19T10:47:49.446Z,23.32
2022-10-19T10:48:51.483Z,22.60
2022-10-19T10:49:49.406Z,22.93
2022-10-19T10:50:49.305Z,23.98
2022-10-19T10:51:52.211Z,23.60
2022-10-19T10:52:49.295Z,24.77
2022-10-19T10:53:49.449Z,23.01
2022-10-19T10:54:49.314Z,20.58
2022-10-19T10:55:49.269Z,21.60
2022-10-19T10:56:49.319Z,21.61
2022-10-19T10:57:49.337Z,20.51
2022-10-19T10:58:49.263Z,19.50
2022-10-19T10:59:49.284Z,18.83
2022-10-19T11:00:50.053Z,18.68
2022-10-19T11:01:49.311Z,18.90
2022-10-19T11:02:49.267Z,18.94
2022-10-19T11:03:49.222Z,18.44
2022-10-19T11:04:52.176Z,18.18
2022-10-19T11:05:49.223Z,18.29
2022-10-19T11:06:49.222Z,17.94
2022-10-19T11:07:49.249Z,18.19
2022-10-19T11:08:49.406Z,18.86
2022-10-19T11:09:49.237Z,19.60
2022-10-19T11:10:49.242Z,18.95
2022-10-19T11:11:49.194Z,18.36
2022-10-19T11:12:49.200Z,18.10
2022-10-19T11:13:49.169Z,18.18
2022-10-19T11:14:49.274Z,18.29
2022-10-19T11:15:49.166Z,18.00
2022-10-19T11:16:49.177Z,17.74
2022-10-19T11:17:49.144Z,17.67
2022-10-19T11:18:49.174Z,17.59
2022-10-19T11:19:49.136Z,17.59
2022-10-19T11:20:49.248Z,18.80
2022-10-19T11:21:49.113Z,20.35
2022-10-19T11:22:49.122Z,20.53
2022-10-19T11:23:49.103Z,20.15
2022-10-19T11:24:49.183Z,19.40
2022-10-19T11:25:49.103Z,18.84
2022-10-19T11:26:49.164Z,18.72
2022-10-19T11:27:49.095Z,18.43
2022-10-19T11:28:49.126Z,18.12
2022-10-19T11:29:49.071Z,17.99
2022-10-19T11:30:50.725Z,18.10
2022-10-19T11:31:50.083Z,18.46
2022-10-19T11:32:49.063Z,18.42
2022-10-19T11:33:49.021Z,18.49
2022-10-19T11:34:50.037Z,18.28
2022-10-19T11:35:49.046Z,18.59
2022-10-19T11:36:49.041Z,18.94
2022-10-19T11:37:50.063Z,19.18
2022-10-19T11:38:50.991Z,19.33
2022-10-19T11:39:49.182Z,19.24
2022-10-19T11:41:12.847Z,20.34
2022-10-19T11:41:51.036Z,21.60
2022-10-19T11:42:48.970Z,22.46
2022-10-19T11:43:49.032Z,23.17
2022-10-19T11:44:49.618Z,23.50
2022-10-19T11:45:50.723Z,23.27
2022-10-19T11:46:48.939Z,23.71
2022-10-19T11:47:48.939Z,22.92
2022-10-19T11:48:52.875Z,22.68
2022-10-19T11:49:49.927Z,21.42
2022-10-19T11:50:54.081Z,22.46
2022-10-19T11:51:50.928Z,23.79
2022-10-19T11:52:48.891Z,22.59
2022-10-19T11:53:48.971Z,21.32
2022-10-19T11:54:48.902Z,20.41
2022-10-19T11:55:48.881Z,19.60
2022-10-19T11:57:03.224Z,19.57
2022-10-19T11:57:50.911Z,18.99
2022-10-19T11:58:48.884Z,19.69
2022-10-19T11:59:48.836Z,20.28
2022-10-19T12:00:49.871Z,20.62
2022-10-19T12:01:48.908Z,20.84
2022-10-19T12:02:48.861Z,20.42
2022-10-19T12:03:48.877Z,20.33
2022-10-19T12:04:48.822Z,20.06
2022-10-19T12:05:48.837Z,20.66
2022-10-19T12:06:48.829Z,22.49
2022-10-19T12:07:48.869Z,23.68
2022-10-19T12:08:51.289Z,23.76
2022-10-19T12:09:48.783Z,24.13
2022-10-19T12:10:48.780Z,24.54
2022-10-19T12:11:48.840Z,24.67
2022-10-19T12:12:48.790Z,24.34
2022-10-19T12:13:48.762Z,23.26
2022-10-19T12:14:48.866Z,23.46
2022-10-19T12:15:48.762Z,25.06
2022-10-19T12:16:48.765Z,26.22
2022-10-19T12:17:48.825Z,26.05
2022-10-19T12:18:48.736Z,26.22
2022-10-19T12:19:48.800Z,26.52
2022-10-19T12:20:48.728Z,26.61
2022-10-19T12:21:48.742Z,26.09
2022-10-19T12:22:48.771Z,25.77
2022-10-19T12:23:48.735Z,24.80
2022-10-19T12:24:48.725Z,25.67
2022-10-19T12:25:48.721Z,26.37
2022-10-19T12:26:48.708Z,26.91
2022-10-19T12:27:48.722Z,26.50
2022-10-19T12:28:48.684Z,26.39
2022-10-19T12:29:48.688Z,26.28
2022-10-19T12:30:48.689Z,26.35
2022-10-19T12:31:48.692Z,26.83
2022-10-19T12:32:53.414Z,27.09
2022-10-19T12:33:50.666Z,27.77
2022-10-19T12:34:48.697Z,27.29
2022-10-19T12:35:48.688Z,25.90
2022-10-19T12:36:48.644Z,25.25
2022-10-19T12:37:48.646Z,24.13
2022-10-19T12:38:51.035Z,23.75
2022-10-19T12:39:49.620Z,23.34
2022-10-19T12:40:48.737Z,22.92
2022-10-19T12:41:48.632Z,22.56
2022-10-19T12:42:48.631Z,22.89
2022-10-19T12:43:48.644Z,23.32
2022-10-19T12:44:48.593Z,23.42
2022-10-19T12:45:48.660Z,23.04
2022-10-19T12:46:51.689Z,22.47
2022-10-19T12:47:49.600Z,23.12
2022-10-19T12:48:48.582Z,23.12
2022-10-19T12:49:48.595Z,22.72
2022-10-19T12:50:48.614Z,22.69
2022-10-19T12:51:48.619Z,22.31
2022-10-19T12:52:48.573Z,22.44
2022-10-19T12:53:48.559Z,22.72
2022-10-19T12:54:48.562Z,23.40
2022-10-19T12:55:48.550Z,23.38
2022-10-19T12:56:49.776Z,23.35